Terminal Aerodrome Forecast
Issued by NWS

Home | Current Version | Previous Version | Text Only | Print | Product List | Glossary On
Versions: 1 2 3 4 5 6 7 8 9 10 11 12 13 14 15 16 17 18
000
FTUS43 KPAH 261725
TAFCGI
TAF
KCGI 261725Z 2618/2718 19010G18KT P6SM VCTS SCT015CB OVC030
      TEMPO 2620/2624 3SM -TSRA OVC015CB
     FM270100 17007KT P6SM BKN035
     FM271200 18010G18KT P6SM VCTS SCT015CB OVC030 PROB30 2712/2716
      3SM -TSRA BKN015CB=

USA.gov is the U.S. government's official web portal to all federal, state and local government web resources and services.